Terminal Aerodrome Forecast
Issued by NWS

Current Version | Previous Version | Text Only | Print | Product List | Glossary On
Versions: 1 2 3 4 5 6 7 8 9 10 11 12 13 14 15 16 17
629
FTUS43 KILX 282339
TAFDEC
TAF
KDEC 282339Z 2900/2924 19016G24KT P6SM SKC
     FM290600 19013G20KT P6SM VCSH BKN250 WS020/22045KT
     FM291000 20014KT P6SM SCT100 BKN200
     FM291400 22014G21KT P6SM SCT060 BKN150=

USA.gov is the U.S. government's official web portal to all federal, state and local government web resources and services.